sensor_id;sensor_type;location;lat;lon;timestamp;temperature;humidity
9329;DHT22;4703;48.748;19.142;2023-07-31T00:01:57;16.60;99.90
9329;DHT22;4703;48.748;19.142;2023-07-31T00:04:24;16.40;99.90
9329;DHT22;4703;48.748;19.142;2023-07-31T00:06:51;16.80;99.90
9329;DHT22;4703;48.748;19.142;2023-07-31T00:09:18;16.30;99.90
9329;DHT22;4703;48.748;19.142;2023-07-31T00:11:45;16.40;99.90
9329;DHT22;4703;48.748;19.142;2023-07-31T00:14:12;16.30;99.90
9329;DHT22;4703;48.748;19.142;2023-07-31T00:16:39;16.30;99.90
9329;DHT22;4703;48.748;19.142;2023-07-31T00:19:06;16.80;99.90
9329;DHT22;4703;48.748;19.142;2023-07-31T00:21:33;16.20;99.90
9329;DHT22;4703;48.748;19.142;2023-07-31T00:24:00;16.20;99.90
9329;DHT22;4703;48.748;19.142;2023-07-31T00:26:27;16.30;99.90
9329;DHT22;4703;48.748;19.142;2023-07-31T00:28:54;16.20;99.90
9329;DHT22;4703;48.748;19.142;2023-07-31T00:31:21;16.20;99.90
9329;DHT22;4703;48.748;19.142;2023-07-31T00:33:48;16.10;99.90
9329;DHT22;4703;48.748;19.142;2023-07-31T00:36:15;17.70;99.90
9329;DHT22;4703;48.748;19.142;2023-07-31T00:38:44;16.60;99.90
9329;DHT22;4703;48.748;19.142;2023-07-31T00:41:11;16.30;99.90
9329;DHT22;4703;48.748;19.142;2023-07-31T00:43:38;16.10;99.90
9329;DHT22;4703;48.748;19.142;2023-07-31T00:46:05;16.20;99.90
9329;DHT22;4703;48.748;19.142;2023-07-31T00:48:34;16.10;99.90
9329;DHT22;4703;48.748;19.142;2023-07-31T00:51:01;16.50;99.90
9329;DHT22;4703;48.748;19.142;2023-07-31T00:53:28;16.40;99.90
9329;DHT22;4703;48.748;19.142;2023-07-31T00:55:56;16.10;99.90
9329;DHT22;4703;48.748;19.142;2023-07-31T00:58:23;16.10;99.90
9329;DHT22;4703;48.748;19.142;2023-07-31T01:00:50;16.10;99.90
9329;DHT22;4703;48.748;19.142;2023-07-31T01:03:17;16.10;99.90
9329;DHT22;4703;48.748;19.142;2023-07-31T01:05:57;16.00;99.90
9329;DHT22;4703;48.748;19.142;2023-07-31T01:08:58;15.90;99.90
9329;DHT22;4703;48.748;19.142;2023-07-31T01:11:35;15.90;99.90
9329;DHT22;4703;48.748;19.142;2023-07-31T01:14:07;16.00;99.90
9329;DHT22;4703;48.748;19.142;2023-07-31T01:16:34;15.90;99.90
9329;DHT22;4703;48.748;19.142;2023-07-31T01:19:01;15.90;99.90
9329;DHT22;4703;48.748;19.142;2023-07-31T01:22:08;16.00;99.90
9329;DHT22;4703;48.748;19.142;2023-07-31T01:27:16;15.80;99.90
9329;DHT22;4703;48.748;19.142;2023-07-31T01:29:55;15.80;99.90
9329;DHT22;4703;48.748;19.142;2023-07-31T01:32:28;15.90;99.90
9329;DHT22;4703;48.748;19.142;2023-07-31T01:34:58;15.80;99.90
9329;DHT22;4703;48.748;19.142;2023-07-31T01:37:29;15.80;99.90
9329;DHT22;4703;48.748;19.142;2023-07-31T01:39:56;16.20;99.90
9329;DHT22;4703;48.748;19.142;2023-07-31T01:42:23;16.30;99.90
9329;DHT22;4703;48.748;19.142;2023-07-31T01:44:50;15.80;99.90
9329;DHT22;4703;48.748;19.142;2023-07-31T01:47:17;15.80;99.90
9329;DHT22;4703;48.748;19.142;2023-07-31T01:49:44;15.80;99.90
9329;DHT22;4703;48.748;19.142;2023-07-31T01:52:11;16.30;99.90
9329;DHT22;4703;48.748;19.142;2023-07-31T01:54:38;16.00;99.90
9329;DHT22;4703;48.748;19.142;2023-07-31T01:57:05;16.30;99.90
9329;DHT22;4703;48.748;19.142;2023-07-31T01:59:33;15.80;99.90
9329;DHT22;4703;48.748;19.142;2023-07-31T02:02:00;14.80;99.90
9329;DHT22;4703;48.748;19.142;2023-07-31T02:04:27;15.80;99.90
9329;DHT22;4703;48.748;19.142;2023-07-31T02:06:54;16.10;99.90
9329;DHT22;4703;48.748;19.142;2023-07-31T02:09:21;15.80;99.90
9329;DHT22;4703;48.748;19.142;2023-07-31T02:11:48;15.80;99.90
9329;DHT22;4703;48.748;19.142;2023-07-31T02:14:15;15.80;99.90
9329;DHT22;4703;48.748;19.142;2023-07-31T02:16:42;16.00;99.90
9329;DHT22;4703;48.748;19.142;2023-07-31T02:19:10;15.90;99.90
9329;DHT22;4703;48.748;19.142;2023-07-31T02:21:36;15.80;99.90
9329;DHT22;4703;48.748;19.142;2023-07-31T02:24:04;15.80;99.90
9329;DHT22;4703;48.748;19.142;2023-07-31T02:26:31;15.80;99.90
9329;DHT22;4703;48.748;19.142;2023-07-31T02:28:58;15.90;99.90
9329;DHT22;4703;48.748;19.142;2023-07-31T02:31:25;15.80;99.90
9329;DHT22;4703;48.748;19.142;2023-07-31T02:33:52;15.90;99.90
9329;DHT22;4703;48.748;19.142;2023-07-31T02:36:19;15.80;99.90
9329;DHT22;4703;48.748;19.142;2023-07-31T02:38:46;15.80;99.90
9329;DHT22;4703;48.748;19.142;2023-07-31T02:41:13;16.00;99.90
9329;DHT22;4703;48.748;19.142;2023-07-31T02:43:39;15.80;99.90
9329;DHT22;4703;48.748;19.142;2023-07-31T02:46:07;16.00;99.90
9329;DHT22;4703;48.748;19.142;2023-07-31T02:48:34;15.80;99.90
9329;DHT22;4703;48.748;19.142;2023-07-31T02:51:01;16.30;99.90
9329;DHT22;4703;48.748;19.142;2023-07-31T02:53:28;15.80;99.90
9329;DHT22;4703;48.748;19.142;2023-07-31T02:55:55;16.00;99.90
9329;DHT22;4703;48.748;19.142;2023-07-31T02:58:22;16.90;99.90
9329;DHT22;4703;48.748;19.142;2023-07-31T03:00:49;16.60;99.90
9329;DHT22;4703;48.748;19.142;2023-07-31T03:03:16;15.70;99.90
9329;DHT22;4703;48.748;19.142;2023-07-31T03:05:43;14.40;99.90
9329;DHT22;4703;48.748;19.142;2023-07-31T03:08:10;15.70;99.90
9329;DHT22;4703;48.748;19.142;2023-07-31T03:10:37;15.60;99.90
9329;DHT22;4703;48.748;19.142;2023-07-31T03:13:04;15.60;99.90
9329;DHT22;4703;48.748;19.142;2023-07-31T03:15:31;15.60;99.90
9329;DHT22;4703;48.748;19.142;2023-07-31T03:17:58;15.60;99.90
9329;DHT22;4703;48.748;19.142;2023-07-31T03:20:25;15.60;99.90
9329;DHT22;4703;48.748;19.142;2023-07-31T03:22:52;15.50;99.90
9329;DHT22;4703;48.748;19.142;2023-07-31T03:25:19;15.60;99.90
9329;DHT22;4703;48.748;19.142;2023-07-31T03:27:46;15.60;99.90
9329;DHT22;4703;48.748;19.142;2023-07-31T03:30:13;15.60;99.90
9329;DHT22;4703;48.748;19.142;2023-07-31T03:32:40;16.20;99.90
9329;DHT22;4703;48.748;19.142;2023-07-31T03:35:07;15.60;99.90
9329;DHT22;4703;48.748;19.142;2023-07-31T03:37:34;15.60;99.90
9329;DHT22;4703;48.748;19.142;2023-07-31T03:40:01;15.70;99.90
9329;DHT22;4703;48.748;19.142;2023-07-31T03:42:28;15.60;99.90
9329;DHT22;4703;48.748;19.142;2023-07-31T03:44:55;15.80;99.90
9329;DHT22;4703;48.748;19.142;2023-07-31T03:47:22;15.70;99.90
9329;DHT22;4703;48.748;19.142;2023-07-31T03:49:49;16.20;99.90
9329;DHT22;4703;48.748;19.142;2023-07-31T03:52:16;16.10;99.90
9329;DHT22;4703;48.748;19.142;2023-07-31T03:54:43;15.70;99.90
9329;DHT22;4703;48.748;19.142;2023-07-31T03:57:13;15.70;99.90
9329;DHT22;4703;48.748;19.142;2023-07-31T03:59:40;15.70;99.90
9329;DHT22;4703;48.748;19.142;2023-07-31T04:02:07;15.70;99.90
9329;DHT22;4703;48.748;19.142;2023-07-31T04:04:34;15.90;99.90
9329;DHT22;4703;48.748;19.142;2023-07-31T04:07:02;15.70;99.90
9329;DHT22;4703;48.748;19.142;2023-07-31T04:09:29;15.70;99.90
9329;DHT22;4703;48.748;19.142;2023-07-31T04:11:56;17.50;99.90
9329;DHT22;4703;48.748;19.142;2023-07-31T04:14:23;15.80;99.90
9329;DHT22;4703;48.748;19.142;2023-07-31T04:16:50;15.90;99.90
9329;DHT22;4703;48.748;19.142;2023-07-31T04:19:17;16.00;99.90
9329;DHT22;4703;48.748;19.142;2023-07-31T04:21:44;15.80;99.90
9329;DHT22;4703;48.748;19.142;2023-07-31T04:24:11;16.70;99.90
9329;DHT22;4703;48.748;19.142;2023-07-31T04:26:38;16.10;99.90
9329;DHT22;4703;48.748;19.142;2023-07-31T04:29:05;16.00;99.90
9329;DHT22;4703;48.748;19.142;2023-07-31T04:31:33;16.10;99.90
9329;DHT22;4703;48.748;19.142;2023-07-31T04:34:05;16.60;99.90
9329;DHT22;4703;48.748;19.142;2023-07-31T04:36:32;16.10;99.90
9329;DHT22;4703;48.748;19.142;2023-07-31T04:39:00;16.00;99.90
9329;DHT22;4703;48.748;19.142;2023-07-31T04:41:27;16.00;99.90
9329;DHT22;4703;48.748;19.142;2023-07-31T04:43:54;16.00;99.90
9329;DHT22;4703;48.748;19.142;2023-07-31T04:46:21;16.00;99.90
9329;DHT22;4703;48.748;19.142;2023-07-31T04:48:48;16.00;99.90
9329;DHT22;4703;48.748;19.142;2023-07-31T04:51:15;16.70;99.90
9329;DHT22;4703;48.748;19.142;2023-07-31T04:53:42;16.70;99.90
9329;DHT22;4703;48.748;19.142;2023-07-31T04:56:09;16.10;99.90
9329;DHT22;4703;48.748;19.142;2023-07-31T04:58:36;16.20;99.90
9329;DHT22;4703;48.748;19.142;2023-07-31T05:01:03;16.30;99.90
9329;DHT22;4703;48.748;19.142;2023-07-31T05:03:30;16.60;99.90
9329;DHT22;4703;48.748;19.142;2023-07-31T05:05:57;16.30;99.90
9329;DHT22;4703;48.748;19.142;2023-07-31T05:08:24;16.40;99.90
9329;DHT22;4703;48.748;19.142;2023-07-31T05:10:51;16.30;99.90
9329;DHT22;4703;48.748;19.142;2023-07-31T05:13:18;16.40;99.90
9329;DHT22;4703;48.748;19.142;2023-07-31T05:15:45;16.30;99.90
9329;DHT22;4703;48.748;19.142;2023-07-31T05:18:12;16.40;99.90
9329;DHT22;4703;48.748;19.142;2023-07-31T05:20:39;16.40;99.90
9329;DHT22;4703;48.748;19.142;2023-07-31T05:23:07;16.90;99.90
9329;DHT22;4703;48.748;19.142;2023-07-31T05:25:33;16.50;99.90
9329;DHT22;4703;48.748;19.142;2023-07-31T05:28:00;16.80;99.90
9329;DHT22;4703;48.748;19.142;2023-07-31T05:30:30;16.60;99.90
9329;DHT22;4703;48.748;19.142;2023-07-31T05:32:57;16.70;99.90
9329;DHT22;4703;48.748;19.142;2023-07-31T05:35:24;16.60;99.90
9329;DHT22;4703;48.748;19.142;2023-07-31T05:37:51;16.70;99.90
9329;DHT22;4703;48.748;19.142;2023-07-31T05:40:18;16.70;99.90
9329;DHT22;4703;48.748;19.142;2023-07-31T05:42:45;16.80;99.90
9329;DHT22;4703;48.748;19.142;2023-07-31T05:45:12;16.90;99.90
9329;DHT22;4703;48.748;19.142;2023-07-31T05:47:40;16.90;99.90
9329;DHT22;4703;48.748;19.142;2023-07-31T05:50:07;17.00;99.90
9329;DHT22;4703;48.748;19.142;2023-07-31T05:52:34;17.00;99.90
9329;DHT22;4703;48.748;19.142;2023-07-31T05:55:01;17.00;99.90
9329;DHT22;4703;48.748;19.142;2023-07-31T05:57:29;17.10;99.90
9329;DHT22;4703;48.748;19.142;2023-07-31T05:59:56;17.20;99.90
9329;DHT22;4703;48.748;19.142;2023-07-31T06:02:23;17.20;99.90
9329;DHT22;4703;48.748;19.142;2023-07-31T06:04:50;17.30;99.90
9329;DHT22;4703;48.748;19.142;2023-07-31T06:07:17;17.30;99.90
9329;DHT22;4703;48.748;19.142;2023-07-31T06:09:45;17.30;99.90
9329;DHT22;4703;48.748;19.142;2023-07-31T06:12:12;17.30;99.90
9329;DHT22;4703;48.748;19.142;2023-07-31T06:14:39;17.40;99.90
9329;DHT22;4703;48.748;19.142;2023-07-31T06:17:06;17.40;99.90
9329;DHT22;4703;48.748;19.142;2023-07-31T06:19:33;17.50;99.90
9329;DHT22;4703;48.748;19.142;2023-07-31T06:22:00;17.50;99.90
9329;DHT22;4703;48.748;19.142;2023-07-31T06:24:28;17.60;99.90
9329;DHT22;4703;48.748;19.142;2023-07-31T06:26:56;17.60;99.90
9329;DHT22;4703;48.748;19.142;2023-07-31T06:29:24;17.70;99.90
9329;DHT22;4703;48.748;19.142;2023-07-31T06:31:51;17.70;99.90
9329;DHT22;4703;48.748;19.142;2023-07-31T06:34:18;17.80;99.90
9329;DHT22;4703;48.748;19.142;2023-07-31T06:36:45;17.80;99.90
9329;DHT22;4703;48.748;19.142;2023-07-31T06:39:12;17.90;99.90
9329;DHT22;4703;48.748;19.142;2023-07-31T06:41:39;17.90;99.90
9329;DHT22;4703;48.748;19.142;2023-07-31T06:44:06;17.90;99.90
9329;DHT22;4703;48.748;19.142;2023-07-31T06:46:33;17.90;99.90
9329;DHT22;4703;48.748;19.142;2023-07-31T06:49:00;18.00;99.90
9329;DHT22;4703;48.748;19.142;2023-07-31T06:51:27;18.10;99.90
9329;DHT22;4703;48.748;19.142;2023-07-31T06:53:54;18.10;99.90
9329;DHT22;4703;48.748;19.142;2023-07-31T06:56:21;18.20;99.90
9329;DHT22;4703;48.748;19.142;2023-07-31T06:58:48;18.30;99.90
9329;DHT22;4703;48.748;19.142;2023-07-31T07:01:15;18.50;99.90
9329;DHT22;4703;48.748;19.142;2023-07-31T07:03:42;18.60;99.90
9329;DHT22;4703;48.748;19.142;2023-07-31T07:06:09;18.70;99.90
9329;DHT22;4703;48.748;19.142;2023-07-31T07:08:36;18.90;99.90
9329;DHT22;4703;48.748;19.142;2023-07-31T07:11:03;19.00;99.90
9329;DHT22;4703;48.748;19.142;2023-07-31T07:13:30;19.10;99.90
9329;DHT22;4703;48.748;19.142;2023-07-31T07:15:57;19.20;99.90
9329;DHT22;4703;48.748;19.142;2023-07-31T07:18:24;19.20;99.90
9329;DHT22;4703;48.748;19.142;2023-07-31T07:20:52;19.30;99.90
9329;DHT22;4703;48.748;19.142;2023-07-31T07:23:20;19.30;99.90
9329;DHT22;4703;48.748;19.142;2023-07-31T07:25:47;19.40;99.90
9329;DHT22;4703;48.748;19.142;2023-07-31T07:28:15;19.40;99.90
9329;DHT22;4703;48.748;19.142;2023-07-31T07:30:42;19.50;99.90
9329;DHT22;4703;48.748;19.142;2023-07-31T07:33:09;19.60;99.90
9329;DHT22;4703;48.748;19.142;2023-07-31T07:35:36;19.60;99.90
9329;DHT22;4703;48.748;19.142;2023-07-31T07:38:03;19.70;99.90
9329;DHT22;4703;48.748;19.142;2023-07-31T07:40:30;19.80;99.90
9329;DHT22;4703;48.748;19.142;2023-07-31T07:42:57;20.00;99.90
9329;DHT22;4703;48.748;19.142;2023-07-31T07:45:26;20.10;99.90
9329;DHT22;4703;48.748;19.142;2023-07-31T07:47:53;20.10;99.90
9329;DHT22;4703;48.748;19.142;2023-07-31T07:50:20;20.20;99.90
9329;DHT22;4703;48.748;19.142;2023-07-31T07:52:47;20.20;99.90
9329;DHT22;4703;48.748;19.142;2023-07-31T07:55:14;20.20;99.90
9329;DHT22;4703;48.748;19.142;2023-07-31T07:57:41;20.20;99.90
9329;DHT22;4703;48.748;19.142;2023-07-31T08:00:12;20.20;99.90
9329;DHT22;4703;48.748;19.142;2023-07-31T08:02:40;20.20;99.90
9329;DHT22;4703;48.748;19.142;2023-07-31T08:05:07;20.20;99.90
9329;DHT22;4703;48.748;19.142;2023-07-31T08:07:35;20.30;99.90
9329;DHT22;4703;48.748;19.142;2023-07-31T08:10:02;20.30;99.90
9329;DHT22;4703;48.748;19.142;2023-07-31T08:12:29;20.30;99.90
9329;DHT22;4703;48.748;19.142;2023-07-31T08:14:56;20.30;99.90
9329;DHT22;4703;48.748;19.142;2023-07-31T08:17:23;20.30;99.90
9329;DHT22;4703;48.748;19.142;2023-07-31T08:19:51;20.30;99.90
9329;DHT22;4703;48.748;19.142;2023-07-31T08:22:18;20.40;99.90
9329;DHT22;4703;48.748;19.142;2023-07-31T08:24:45;20.40;99.90
9329;DHT22;4703;48.748;19.142;2023-07-31T08:27:12;20.40;99.90
9329;DHT22;4703;48.748;19.142;2023-07-31T08:29:39;20.40;99.90
9329;DHT22;4703;48.748;19.142;2023-07-31T08:32:07;20.40;99.90
9329;DHT22;4703;48.748;19.142;2023-07-31T08:34:34;20.30;99.90
9329;DHT22;4703;48.748;19.142;2023-07-31T08:37:01;20.30;99.90
9329;DHT22;4703;48.748;19.142;2023-07-31T08:39:28;20.30;99.90
9329;DHT22;4703;48.748;19.142;2023-07-31T08:41:59;20.30;99.90
9329;DHT22;4703;48.748;19.142;2023-07-31T08:44:27;20.40;99.90
9329;DHT22;4703;48.748;19.142;2023-07-31T08:46:54;20.40;99.90
9329;DHT22;4703;48.748;19.142;2023-07-31T08:49:22;20.40;99.90
9329;DHT22;4703;48.748;19.142;2023-07-31T08:51:50;20.40;99.90
9329;DHT22;4703;48.748;19.142;2023-07-31T08:54:18;20.40;99.90
9329;DHT22;4703;48.748;19.142;2023-07-31T08:56:45;20.40;99.90
9329;DHT22;4703;48.748;19.142;2023-07-31T08:59:14;20.50;99.90
9329;DHT22;4703;48.748;19.142;2023-07-31T09:01:48;20.50;99.90
9329;DHT22;4703;48.748;19.142;2023-07-31T09:04:18;20.50;99.90
9329;DHT22;4703;48.748;19.142;2023-07-31T09:06:47;20.50;99.90
9329;DHT22;4703;48.748;19.142;2023-07-31T09:09:15;20.60;99.90
9329;DHT22;4703;48.748;19.142;2023-07-31T09:11:42;20.60;99.90
9329;DHT22;4703;48.748;19.142;2023-07-31T09:14:10;20.70;99.90
9329;DHT22;4703;48.748;19.142;2023-07-31T09:17:00;20.80;99.90
9329;DHT22;4703;48.748;19.142;2023-07-31T09:19:34;20.80;99.90
9329;DHT22;4703;48.748;19.142;2023-07-31T09:22:05;20.80;99.90
9329;DHT22;4703;48.748;19.142;2023-07-31T09:24:34;20.90;99.90
9329;DHT22;4703;48.748;19.142;2023-07-31T09:27:01;20.80;99.90
9329;DHT22;4703;48.748;19.142;2023-07-31T09:29:29;20.80;99.90
9329;DHT22;4703;48.748;19.142;2023-07-31T09:31:56;20.80;99.90
9329;DHT22;4703;48.748;19.142;2023-07-31T09:34:29;20.80;99.90
9329;DHT22;4703;48.748;19.142;2023-07-31T09:37:01;20.80;99.90
9329;DHT22;4703;48.748;19.142;2023-07-31T09:39:29;20.80;99.90
9329;DHT22;4703;48.748;19.142;2023-07-31T09:41:56;20.80;99.90
9329;DHT22;4703;48.748;19.142;2023-07-31T09:44:39;20.90;99.90
9329;DHT22;4703;48.748;19.142;2023-07-31T09:47:24;20.90;99.90
9329;DHT22;4703;48.748;19.142;2023-07-31T09:49:52;21.00;99.90
9329;DHT22;4703;48.748;19.142;2023-07-31T09:52:19;21.10;99.90
9329;DHT22;4703;48.748;19.142;2023-07-31T09:54:46;21.20;99.90
9329;DHT22;4703;48.748;19.142;2023-07-31T09:57:13;21.30;99.90
9329;DHT22;4703;48.748;19.142;2023-07-31T09:59:44;21.40;99.90
9329;DHT22;4703;48.748;19.142;2023-07-31T10:02:15;21.50;99.90
9329;DHT22;4703;48.748;19.142;2023-07-31T10:04:49;21.60;99.90
9329;DHT22;4703;48.748;19.142;2023-07-31T10:07:18;21.80;99.90
9329;DHT22;4703;48.748;19.142;2023-07-31T10:09:46;21.90;99.90
9329;DHT22;4703;48.748;19.142;2023-07-31T10:12:15;22.00;99.80
9329;DHT22;4703;48.748;19.142;2023-07-31T10:14:44;22.10;99.60
9329;DHT22;4703;48.748;19.142;2023-07-31T10:17:12;22.30;99.90
9329;DHT22;4703;48.748;19.142;2023-07-31T10:19:40;22.50;99.90
9329;DHT22;4703;48.748;19.142;2023-07-31T10:22:08;22.70;99.90
9329;DHT22;4703;48.748;19.142;2023-07-31T10:24:39;22.80;99.80
9329;DHT22;4703;48.748;19.142;2023-07-31T10:27:07;23.00;99.70
9329;DHT22;4703;48.748;19.142;2023-07-31T10:29:35;23.20;99.10
9329;DHT22;4703;48.748;19.142;2023-07-31T10:32:04;23.40;98.90
9329;DHT22;4703;48.748;19.142;2023-07-31T10:34:38;23.80;97.90
9329;DHT22;4703;48.748;19.142;2023-07-31T10:37:27;24.00;97.60
9329;DHT22;4703;48.748;19.142;2023-07-31T10:40:01;24.20;94.90
9329;DHT22;4703;48.748;19.142;2023-07-31T10:42:31;24.20;95.20
9329;DHT22;4703;48.748;19.142;2023-07-31T10:45:08;24.30;96.30
9329;DHT22;4703;48.748;19.142;2023-07-31T10:47:38;24.60;95.80
9329;DHT22;4703;48.748;19.142;2023-07-31T10:50:21;24.70;94.50
9329;DHT22;4703;48.748;19.142;2023-07-31T10:52:54;24.90;93.50
9329;DHT22;4703;48.748;19.142;2023-07-31T10:55:39;24.90;93.90
9329;DHT22;4703;48.748;19.142;2023-07-31T10:58:11;24.90;92.20
9329;DHT22;4703;48.748;19.142;2023-07-31T11:00:40;25.00;92.70
9329;DHT22;4703;48.748;19.142;2023-07-31T11:03:19;25.40;94.30
9329;DHT22;4703;48.748;19.142;2023-07-31T11:08:30;26.00;91.00
9329;DHT22;4703;48.748;19.142;2023-07-31T11:13:33;26.60;92.20
9329;DHT22;4703;48.748;19.142;2023-07-31T11:16:07;26.80;90.20
9329;DHT22;4703;48.748;19.142;2023-07-31T11:18:35;27.00;90.00
9329;DHT22;4703;48.748;19.142;2023-07-31T11:21:02;27.00;90.50
9329;DHT22;4703;48.748;19.142;2023-07-31T11:23:29;27.10;90.30
9329;DHT22;4703;48.748;19.142;2023-07-31T11:25:59;27.10;88.30
9329;DHT22;4703;48.748;19.142;2023-07-31T11:28:34;27.30;89.00
9329;DHT22;4703;48.748;19.142;2023-07-31T11:31:02;27.40;88.70
9329;DHT22;4703;48.748;19.142;2023-07-31T11:33:30;27.60;87.10
9329;DHT22;4703;48.748;19.142;2023-07-31T11:35:57;27.90;87.50
9329;DHT22;4703;48.748;19.142;2023-07-31T11:38:28;28.10;83.80
9329;DHT22;4703;48.748;19.142;2023-07-31T11:41:04;28.30;83.70
9329;DHT22;4703;48.748;19.142;2023-07-31T11:43:32;28.50;83.60
9329;DHT22;4703;48.748;19.142;2023-07-31T11:46:02;28.60;81.00
9329;DHT22;4703;48.748;19.142;2023-07-31T11:48:32;28.70;81.90
9329;DHT22;4703;48.748;19.142;2023-07-31T11:51:06;28.80;80.80
9329;DHT22;4703;48.748;19.142;2023-07-31T11:53:52;29.00;81.20
9329;DHT22;4703;48.748;19.142;2023-07-31T11:56:21;28.70;78.00
9329;DHT22;4703;48.748;19.142;2023-07-31T11:58:58;28.70;80.10
9329;DHT22;4703;48.748;19.142;2023-07-31T12:01:26;28.70;80.90
9329;DHT22;4703;48.748;19.142;2023-07-31T12:03:57;28.80;80.00
9329;DHT22;4703;48.748;19.142;2023-07-31T12:06:35;29.10;80.60
9329;DHT22;4703;48.748;19.142;2023-07-31T12:09:03;29.30;76.30
9329;DHT22;4703;48.748;19.142;2023-07-31T12:11:42;29.10;74.60
9329;DHT22;4703;48.748;19.142;2023-07-31T12:14:28;29.00;76.80
9329;DHT22;4703;48.748;19.142;2023-07-31T12:16:59;29.10;75.90
9329;DHT22;4703;48.748;19.142;2023-07-31T12:19:27;29.30;75.60
9329;DHT22;4703;48.748;19.142;2023-07-31T12:21:57;29.70;77.30
9329;DHT22;4703;48.748;19.142;2023-07-31T12:24:26;30.00;75.10
9329;DHT22;4703;48.748;19.142;2023-07-31T12:26:54;30.60;71.10
9329;DHT22;4703;48.748;19.142;2023-07-31T12:29:22;30.80;67.90
9329;DHT22;4703;48.748;19.142;2023-07-31T12:31:49;31.00;67.50
9329;DHT22;4703;48.748;19.142;2023-07-31T12:34:17;31.20;64.90
9329;DHT22;4703;48.748;19.142;2023-07-31T12:36:45;31.50;64.30
9329;DHT22;4703;48.748;19.142;2023-07-31T12:39:13;31.50;60.90
9329;DHT22;4703;48.748;19.142;2023-07-31T12:41:40;31.30;59.20
9329;DHT22;4703;48.748;19.142;2023-07-31T12:44:06;30.80;55.40
9329;DHT22;4703;48.748;19.142;2023-07-31T12:46:33;30.70;57.70
9329;DHT22;4703;48.748;19.142;2023-07-31T12:49:00;30.60;55.80
9329;DHT22;4703;48.748;19.142;2023-07-31T12:51:29;30.60;59.00
9329;DHT22;4703;48.748;19.142;2023-07-31T12:53:56;30.30;56.60
9329;DHT22;4703;48.748;19.142;2023-07-31T12:56:23;30.00;56.70
9329;DHT22;4703;48.748;19.142;2023-07-31T12:58:50;29.70;57.60
9329;DHT22;4703;48.748;19.142;2023-07-31T13:01:17;29.60;56.90
9329;DHT22;4703;48.748;19.142;2023-07-31T13:03:44;29.40;57.60
9329;DHT22;4703;48.748;19.142;2023-07-31T13:06:11;29.30;59.10
9329;DHT22;4703;48.748;19.142;2023-07-31T13:08:38;29.20;57.30
9329;DHT22;4703;48.748;19.142;2023-07-31T13:11:05;29.00;57.20
9329;DHT22;4703;48.748;19.142;2023-07-31T13:13:32;28.80;58.80
9329;DHT22;4703;48.748;19.142;2023-07-31T13:15:59;28.70;57.70
9329;DHT22;4703;48.748;19.142;2023-07-31T13:18:26;28.60;58.60
9329;DHT22;4703;48.748;19.142;2023-07-31T13:20:54;28.50;61.40
9329;DHT22;4703;48.748;19.142;2023-07-31T13:23:21;28.40;58.50
9329;DHT22;4703;48.748;19.142;2023-07-31T13:25:48;28.40;59.10
9329;DHT22;4703;48.748;19.142;2023-07-31T13:28:15;28.30;58.90
9329;DHT22;4703;48.748;19.142;2023-07-31T13:30:43;28.30;59.10
9329;DHT22;4703;48.748;19.142;2023-07-31T13:33:10;28.30;60.10
9329;DHT22;4703;48.748;19.142;2023-07-31T13:35:55;28.30;60.80
9329;DHT22;4703;48.748;19.142;2023-07-31T13:38:22;28.30;60.90
9329;DHT22;4703;48.748;19.142;2023-07-31T13:40:49;28.20;59.80
9329;DHT22;4703;48.748;19.142;2023-07-31T13:43:16;28.10;58.90
9329;DHT22;4703;48.748;19.142;2023-07-31T13:45:43;28.20;57.10
9329;DHT22;4703;48.748;19.142;2023-07-31T13:48:10;28.20;57.20
9329;DHT22;4703;48.748;19.142;2023-07-31T13:50:37;28.20;59.20
9329;DHT22;4703;48.748;19.142;2023-07-31T13:53:04;28.30;59.00
9329;DHT22;4703;48.748;19.142;2023-07-31T13:55:31;28.40;56.70
9329;DHT22;4703;48.748;19.142;2023-07-31T13:57:58;28.60;56.80
9329;DHT22;4703;48.748;19.142;2023-07-31T14:00:25;28.60;58.50
9329;DHT22;4703;48.748;19.142;2023-07-31T14:02:52;28.70;60.10
9329;DHT22;4703;48.748;19.142;2023-07-31T14:05:19;29.00;59.10
9329;DHT22;4703;48.748;19.142;2023-07-31T14:07:46;29.10;58.70
9329;DHT22;4703;48.748;19.142;2023-07-31T14:10:13;29.20;59.10
9329;DHT22;4703;48.748;19.142;2023-07-31T14:12:40;29.40;58.80
9329;DHT22;4703;48.748;19.142;2023-07-31T14:15:10;29.70;57.20
9329;DHT22;4703;48.748;19.142;2023-07-31T14:17:37;30.00;58.10
9329;DHT22;4703;48.748;19.142;2023-07-31T14:20:05;30.30;58.40
9329;DHT22;4703;48.748;19.142;2023-07-31T14:22:33;30.30;56.20
9329;DHT22;4703;48.748;19.142;2023-07-31T14:25:01;30.30;56.50
9329;DHT22;4703;48.748;19.142;2023-07-31T14:27:28;30.50;56.20
9329;DHT22;4703;48.748;19.142;2023-07-31T14:29:55;30.60;55.20
9329;DHT22;4703;48.748;19.142;2023-07-31T14:32:23;30.70;56.10
9329;DHT22;4703;48.748;19.142;2023-07-31T14:34:52;30.70;55.20
9329;DHT22;4703;48.748;19.142;2023-07-31T14:37:19;30.50;54.70
9329;DHT22;4703;48.748;19.142;2023-07-31T14:39:46;30.30;56.50
9329;DHT22;4703;48.748;19.142;2023-07-31T14:42:13;30.50;56.00
9329;DHT22;4703;48.748;19.142;2023-07-31T14:44:40;30.50;55.80
9329;DHT22;4703;48.748;19.142;2023-07-31T14:47:07;30.50;55.90
9329;DHT22;4703;48.748;19.142;2023-07-31T14:49:34;30.60;56.60
9329;DHT22;4703;48.748;19.142;2023-07-31T14:52:01;30.60;55.90
9329;DHT22;4703;48.748;19.142;2023-07-31T14:54:30;30.70;55.40
9329;DHT22;4703;48.748;19.142;2023-07-31T14:56:57;30.70;53.80
9329;DHT22;4703;48.748;19.142;2023-07-31T14:59:24;30.70;54.00
9329;DHT22;4703;48.748;19.142;2023-07-31T15:01:51;30.30;53.60
9329;DHT22;4703;48.748;19.142;2023-07-31T15:04:18;30.00;54.60
9329;DHT22;4703;48.748;19.142;2023-07-31T15:06:46;29.80;54.70
9329;DHT22;4703;48.748;19.142;2023-07-31T15:09:13;29.80;54.30
9329;DHT22;4703;48.748;19.142;2023-07-31T15:11:40;29.70;55.20
9329;DHT22;4703;48.748;19.142;2023-07-31T15:14:07;29.60;57.40
9329;DHT22;4703;48.748;19.142;2023-07-31T15:16:34;29.60;57.20
9329;DHT22;4703;48.748;19.142;2023-07-31T15:19:02;29.50;58.50
9329;DHT22;4703;48.748;19.142;2023-07-31T15:21:29;29.70;58.10
9329;DHT22;4703;48.748;19.142;2023-07-31T15:23:56;29.90;58.30
9329;DHT22;4703;48.748;19.142;2023-07-31T15:26:23;30.50;58.80
9329;DHT22;4703;48.748;19.142;2023-07-31T15:28:56;31.00;56.80
9329;DHT22;4703;48.748;19.142;2023-07-31T15:31:27;31.60;55.60
9329;DHT22;4703;48.748;19.142;2023-07-31T15:33:55;31.80;55.70
9329;DHT22;4703;48.748;19.142;2023-07-31T15:36:22;31.50;52.90
9329;DHT22;4703;48.748;19.142;2023-07-31T15:38:48;31.00;53.30
9329;DHT22;4703;48.748;19.142;2023-07-31T15:41:18;30.70;54.20
9329;DHT22;4703;48.748;19.142;2023-07-31T15:43:47;30.30;55.30
9329;DHT22;4703;48.748;19.142;2023-07-31T15:46:15;29.90;55.30
9329;DHT22;4703;48.748;19.142;2023-07-31T15:48:42;29.20;55.00
9329;DHT22;4703;48.748;19.142;2023-07-31T15:51:09;28.70;55.70
9329;DHT22;4703;48.748;19.142;2023-07-31T15:53:36;28.40;56.20
9329;DHT22;4703;48.748;19.142;2023-07-31T15:56:03;28.20;57.30
9329;DHT22;4703;48.748;19.142;2023-07-31T15:58:30;28.10;56.80
9329;DHT22;4703;48.748;19.142;2023-07-31T16:00:58;28.20;59.10